Time;durP1;ratioP1;P1;durP2;ratioP2;P2;SDS_P1;SDS_P2;PMS_P1;PMS_P2;Temp;Humidity;BMP_temperature;BMP_pressure;BME280_temperature;BME280_humidity;BME280_pressure;Samples;Min_cycle;Max_cycle;Signal;HPM_P1;HPM_P2
2024/01/05 00:02:17;;;;;;;30.58;27.65;;;22.80;71.70;;;;;;6262328;28;84153;-93
2024/01/05 00:05:19;;;;;;;29.40;26.70;;;22.90;72.20;;;;;;6261684;28;84469;-93
2024/01/05 00:08:21;;;;;;;29.65;26.83;;;22.90;72.20;;;;;;6261563;28;84059;-92
2024/01/05 00:11:24;;;;;;;28.55;25.95;;;22.90;72.20;;;;;;6265683;28;84511;-93
2024/01/05 00:14:26;;;;;;;28.38;25.77;;;22.90;72.00;;;;;;6266122;28;84431;-92
2024/01/05 00:17:29;;;;;;;28.83;26.23;;;22.90;72.00;;;;;;6266085;28;83968;-93
2024/01/05 00:20:31;;;;;;;28.52;25.88;;;22.90;72.00;;;;;;6266301;28;83991;-93
2024/01/05 00:23:34;;;;;;;28.45;25.85;;;22.90;71.90;;;;;;6265883;28;83976;-93
2024/01/05 00:26:41;;;;;;;27.45;24.75;;;22.90;72.00;;;;;;6266611;28;83624;-91
2024/01/05 00:29:44;;;;;;;26.45;23.98;;;22.90;72.30;;;;;;6266032;28;84137;-92
2024/01/05 00:32:46;;;;;;;28.05;25.27;;;22.90;72.70;;;;;;6261333;28;83142;-92
2024/01/05 00:35:48;;;;;;;26.85;24.35;;;22.90;73.00;;;;;;6264849;28;85094;-92
2024/01/05 00:39:00;;;;;;;25.75;23.35;;;22.80;72.30;;;;;;6265378;28;84414;-92
2024/01/05 00:42:05;;;;;;;25.95;23.55;;;22.90;72.30;;;;;;6265746;28;83304;-91
2024/01/05 00:45:09;;;;;;;24.98;22.58;;;22.90;72.20;;;;;;6265990;28;84175;-92
2024/01/05 00:48:12;;;;;;;25.98;23.48;;;22.80;72.10;;;;;;6265085;28;84420;-92
2024/01/05 00:51:14;;;;;;;25.15;22.85;;;22.80;72.20;;;;;;6265188;28;86221;-92
2024/01/05 00:54:16;;;;;;;24.70;22.40;;;22.80;72.20;;;;;;6261108;28;82922;-92
2024/01/05 00:57:20;;;;;;;23.95;21.67;;;22.80;72.10;;;;;;6266072;28;84039;-92
2024/01/05 01:00:24;;;;;;;23.90;21.70;;;22.80;72.00;;;;;;6264537;27;84005;-92
2024/01/05 01:03:26;;;;;;;22.90;20.70;;;22.80;72.20;;;;;;6260894;28;83232;-92
2024/01/05 01:06:28;;;;;;;20.83;18.92;;;22.80;71.70;;;;;;6264245;28;85353;-92
2024/01/05 01:09:30;;;;;;;19.33;17.40;;;22.80;71.10;;;;;;6264679;28;83147;-92
2024/01/05 01:12:35;;;;;;;18.15;16.23;;;22.80;69.90;;;;;;6265254;28;84075;-92
2024/01/05 01:15:37;;;;;;;19.85;16.95;;;22.80;68.90;;;;;;6265166;28;83989;-92
2024/01/05 01:18:39;;;;;;;19.65;17.55;;;22.80;69.00;;;;;;6264571;28;84083;-92
2024/01/05 01:21:41;;;;;;;19.25;17.25;;;22.80;69.80;;;;;;6264206;28;84370;-92
2024/01/05 01:24:44;;;;;;;21.10;18.02;;;22.70;70.30;;;;;;6264608;28;84306;-92
2024/01/05 01:27:47;;;;;;;20.65;18.30;;;22.70;70.70;;;;;;6264881;28;83636;-92
2024/01/05 01:30:50;;;;;;;21.77;19.08;;;22.70;71.20;;;;;;6260632;28;82948;-92
2024/01/05 01:33:52;;;;;;;21.23;19.02;;;22.80;71.40;;;;;;6246284;28;84502;-92
2024/01/05 01:36:54;;;;;;;20.90;18.70;;;22.70;71.70;;;;;;6263771;28;84922;-92
2024/01/05 01:39:57;;;;;;;21.10;18.77;;;22.80;72.00;;;;;;6265959;28;84075;-94
2024/01/05 01:43:00;;;;;;;22.17;19.80;;;22.90;73.30;;;;;;6263452;27;84388;-92
2024/01/05 01:46:02;;;;;;;20.58;18.48;;;23.00;72.50;;;;;;6264025;28;84008;-92
2024/01/05 01:49:05;;;;;;;19.48;17.33;;;23.10;72.10;;;;;;6263968;28;84501;-92
2024/01/05 01:52:09;;;;;;;20.73;18.50;;;23.40;70.30;;;;;;6260082;28;82943;-92
2024/01/05 01:55:11;;;;;;;21.90;18.60;;;23.70;69.40;;;;;;6264091;28;84206;-92
2024/01/05 01:58:16;;;;;;;23.13;18.55;;;23.80;69.10;;;;;;6264232;28;84309;-92
2024/01/05 02:01:19;;;;;;;22.77;18.13;;;23.90;69.30;;;;;;6263907;28;83248;-92
2024/01/05 02:04:23;;;;;;;23.52;18.83;;;23.80;69.50;;;;;;6263759;28;84388;-92
2024/01/05 02:07:26;;;;;;;24.25;19.13;;;23.80;69.50;;;;;;6264256;28;84902;-92
2024/01/05 02:10:28;;;;;;;35.65;31.95;;;23.80;69.60;;;;;;6263375;28;83966;-92
2024/01/05 02:13:33;;;;;;;41.42;37.22;;;23.70;69.40;;;;;;6263076;27;84534;-92
2024/01/05 02:16:36;;;;;;;37.65;33.75;;;23.70;69.50;;;;;;6262919;28;84421;-92
2024/01/05 02:19:38;;;;;;;34.05;30.48;;;23.60;69.50;;;;;;6263888;28;83948;-92
2024/01/05 02:22:48;;;;;;;34.33;30.83;;;23.60;69.70;;;;;;6264265;28;84327;-92
2024/01/05 02:25:54;;;;;;;32.85;29.30;;;23.50;69.80;;;;;;6263752;28;82593;-92
2024/01/05 02:28:56;;;;;;;32.80;29.40;;;23.50;70.00;;;;;;6260010;28;83174;-92
2024/01/05 02:31:59;;;;;;;33.63;30.10;;;23.50;70.10;;;;;;6262900;28;84737;-93
2024/01/05 02:35:02;;;;;;;32.25;29.05;;;23.40;70.10;;;;;;6262730;28;82884;-92
2024/01/05 02:38:04;;;;;;;32.95;29.67;;;23.40;70.20;;;;;;6263051;28;84862;-92
2024/01/05 02:41:08;;;;;;;31.73;28.52;;;23.30;70.30;;;;;;6263229;28;86301;-92
2024/01/05 02:44:10;;;;;;;32.88;29.67;;;23.30;70.30;;;;;;6263109;28;83853;-92
2024/01/05 02:47:13;;;;;;;33.45;29.95;;;23.20;70.40;;;;;;6263513;28;82935;-92
2024/01/05 02:50:16;;;;;;;35.20;31.80;;;23.20;70.40;;;;;;6263245;28;84033;-92
2024/01/05 02:53:18;;;;;;;37.65;33.80;;;23.20;70.50;;;;;;6262938;28;83943;-92
2024/01/05 02:56:22;;;;;;;39.10;35.22;;;23.10;70.40;;;;;;6262740;28;83124;-92
2024/01/05 02:59:24;;;;;;;43.45;39.05;;;23.10;70.50;;;;;;6263550;28;83142;-93
2024/01/05 03:02:26;;;;;;;44.22;39.92;;;23.10;70.50;;;;;;6262213;28;83014;-92
2024/01/05 03:05:29;;;;;;;44.97;40.60;;;23.10;70.50;;;;;;6262738;28;82860;-92
2024/01/05 03:08:31;;;;;;;48.35;43.65;;;23.10;70.50;;;;;;6262542;28;83802;-92
2024/01/05 03:11:37;;;;;;;48.83;44.10;;;23.10;70.60;;;;;;6263053;28;83949;-93
2024/01/05 03:14:39;;;;;;;51.83;46.80;;;23.00;70.50;;;;;;6262281;28;82646;-92
2024/01/05 03:17:41;;;;;;;51.90;46.75;;;23.10;70.50;;;;;;6262321;28;84137;-91
2024/01/05 03:20:51;;;;;;;54.53;49.35;;;23.10;70.60;;;;;;6262774;28;82883;-92
2024/01/05 03:23:53;;;;;;;58.03;52.53;;;23.10;70.50;;;;;;6262632;28;83892;-92
2024/01/05 03:26:57;;;;;;;60.53;54.70;;;23.00;70.50;;;;;;6263540;28;84992;-92
2024/01/05 03:29:59;;;;;;;61.45;55.42;;;23.00;70.50;;;;;;6263638;28;82616;-92
2024/01/05 03:33:02;;;;;;;64.32;58.22;;;23.00;70.50;;;;;;6262175;28;84038;-92
2024/01/05 03:36:04;;;;;;;66.55;60.25;;;23.00;70.50;;;;;;6261669;28;83895;-92
2024/01/05 03:39:07;;;;;;;72.70;65.82;;;23.00;70.50;;;;;;6262001;28;84916;-92
2024/01/05 03:42:11;;;;;;;73.43;66.53;;;23.00;70.50;;;;;;6262024;28;84261;-92
2024/01/05 03:45:13;;;;;;;75.05;68.18;;;23.00;70.50;;;;;;6264373;27;84212;-92
2024/01/05 03:48:15;;;;;;;73.75;66.90;;;23.00;70.50;;;;;;6266521;28;84304;-92
2024/01/05 03:51:19;;;;;;;77.85;70.55;;;22.90;70.50;;;;;;6266224;28;83252;-91
2024/01/05 03:54:21;;;;;;;78.80;71.43;;;22.90;70.50;;;;;;6266420;28;83949;-92
2024/01/05 03:57:25;;;;;;;81.95;74.45;;;22.90;70.40;;;;;;6262306;28;83263;-92
2024/01/05 04:00:28;;;;;;;82.57;74.88;;;22.90;70.50;;;;;;6266542;28;82668;-92
2024/01/05 04:03:31;;;;;;;81.03;73.78;;;22.90;70.50;;;;;;6266149;28;84047;-91
2024/01/05 04:06:34;;;;;;;82.93;75.43;;;22.90;71.30;;;;;;6266340;28;84289;-92
2024/01/05 04:09:36;;;;;;;86.90;79.05;;;22.80;70.50;;;;;;6265485;28;84944;-92
2024/01/05 04:12:39;;;;;;;88.53;80.50;;;22.90;70.50;;;;;;6266147;28;82714;-92
2024/01/05 04:15:42;;;;;;;88.43;80.28;;;22.90;70.50;;;;;;6266158;28;83947;-92
2024/01/05 04:18:44;;;;;;;85.97;78.28;;;22.90;70.50;;;;;;6266451;28;82984;-92
2024/01/05 04:21:46;;;;;;;88.45;80.45;;;22.90;70.50;;;;;;6265986;28;84365;-92
2024/01/05 04:24:48;;;;;;;95.68;87.18;;;22.90;70.40;;;;;;6266286;28;83850;-92
2024/01/05 04:27:53;;;;;;;92.90;84.50;;;22.90;70.50;;;;;;6262005;28;83012;-92
2024/01/05 04:30:55;;;;;;;93.97;85.63;;;22.90;70.40;;;;;;6265767;28;83280;-92
2024/01/05 04:33:57;;;;;;;87.68;79.68;;;22.90;70.50;;;;;;6264913;28;84034;-92
2024/01/05 04:40:17;;;;;;;81.47;74.10;;;22.80;70.30;;;;;;6248974;28;85134;-92
2024/01/05 04:43:20;;;;;;;83.55;75.75;;;22.80;70.50;;;;;;6244447;28;83729;-92
2024/01/05 04:46:23;;;;;;;82.78;75.28;;;22.80;70.50;;;;;;6246011;28;84055;-92
2024/01/05 04:49:26;;;;;;;83.05;75.53;;;22.80;70.60;;;;;;6256817;28;84099;-92
2024/01/05 04:52:28;;;;;;;82.55;75.05;;;22.80;70.60;;;;;;6255885;28;83072;-93
2024/01/05 05:07:26;;;;;;;79.28;71.97;;;22.70;70.90;;;;;;6014525;29;82390;-92
2024/01/05 05:10:29;;;;;;;78.97;71.70;;;22.80;71.00;;;;;;6007263;29;83292;-92
2024/01/05 05:13:31;;;;;;;76.57;69.60;;;22.80;71.00;;;;;;6007126;29;83062;-92
2024/01/05 05:16:35;;;;;;;74.63;67.63;;;22.80;71.10;;;;;;6006030;29;83022;-92
2024/01/05 05:19:38;;;;;;;72.55;65.85;;;22.80;71.10;;;;;;6008535;29;84062;-92
2024/01/05 05:22:42;;;;;;;72.88;66.05;;;22.80;71.10;;;;;;6026599;28;83979;-92
2024/01/05 05:25:44;;;;;;;71.00;64.40;;;22.80;71.10;;;;;;6057541;29;84004;-93
2024/01/05 05:28:46;;;;;;;67.72;61.42;;;22.80;71.10;;;;;;6054069;29;82920;-93
2024/01/05 05:31:48;;;;;;;69.47;62.88;;;22.80;72.00;;;;;;6048928;29;83407;-93
2024/01/05 05:34:52;;;;;;;67.75;61.28;;;22.90;71.10;;;;;;6044066;28;82839;-92
2024/01/05 05:37:56;;;;;;;65.75;59.60;;;22.80;71.00;;;;;;6151689;28;84013;-93
2024/01/05 05:44:14;;;;;;;71.93;65.13;;;22.80;71.00;;;;;;6194660;28;83693;-92
2024/01/05 05:50:34;;;;;;;73.18;66.22;;;22.90;72.50;;;;;;6225875;28;85333;-93
2024/01/05 05:57:24;;;;;;;59.20;53.60;;;22.90;72.20;;;;;;6223795;28;84545;-93
2024/01/05 06:00:26;;;;;;;55.92;50.72;;;22.80;70.80;;;;;;6225119;28;83246;-93
2024/01/05 06:03:28;;;;;;;55.30;50.25;;;22.90;70.50;;;;;;6224731;28;83342;-93
2024/01/05 06:06:31;;;;;;;54.13;49.05;;;22.80;70.40;;;;;;6224032;28;83382;-93
2024/01/05 06:09:33;;;;;;;54.58;49.58;;;22.80;70.40;;;;;;6230520;28;84377;-93
2024/01/05 06:20:09;;;;;;;47.80;43.50;;;22.80;70.40;;;;;;6227353;28;85317;-93
2024/01/05 06:29:44;;;;;;;45.08;40.97;;;22.90;70.30;;;;;;6230906;28;84041;-93
2024/01/05 06:32:47;;;;;;;44.35;40.35;;;22.90;70.10;;;;;;6230286;28;82637;-93
2024/01/05 06:35:51;;;;;;;43.80;39.80;;;22.90;70.00;;;;;;6243699;28;82867;-94
2024/01/05 06:42:08;;;;;;;41.63;37.83;;;22.90;69.90;;;;;;6277755;28;83214;-93
2024/01/05 06:45:10;;;;;;;41.72;37.95;;;22.90;69.90;;;;;;6279539;28;84048;-94
2024/01/05 06:48:12;;;;;;;39.78;36.17;;;22.90;69.90;;;;;;6272778;28;84369;-93
2024/01/05 06:51:16;;;;;;;39.08;35.58;;;22.90;70.00;;;;;;6267210;28;84011;-93
2024/01/05 06:54:18;;;;;;;37.97;34.58;;;22.90;70.00;;;;;;6279816;28;82880;-93
2024/01/05 06:57:24;;;;;;;37.10;33.80;;;22.90;70.00;;;;;;6279494;28;82882;-93
2024/01/05 07:03:44;;;;;;;36.28;33.08;;;22.90;70.00;;;;;;6278830;28;82960;-93
2024/01/05 07:13:49;;;;;;;33.08;30.08;;;22.90;70.10;;;;;;6278488;28;82743;-93
2024/01/05 07:16:52;;;;;;;33.25;30.25;;;22.90;70.20;;;;;;6279696;28;82926;-93
2024/01/05 07:19:54;;;;;;;31.13;28.33;;;22.90;70.30;;;;;;6264520;28;83847;-93
2024/01/05 07:22:56;;;;;;;31.05;28.25;;;22.90;70.40;;;;;;6283641;28;82899;-93
2024/01/05 07:29:45;;;;;;;29.77;26.98;;;22.90;70.50;;;;;;6282597;28;84004;-93
2024/01/05 07:32:47;;;;;;;29.40;26.65;;;22.90;70.50;;;;;;6278113;28;83021;-93
2024/01/05 07:35:49;;;;;;;30.08;27.40;;;22.90;70.50;;;;;;6275574;28;84042;-93
2024/01/05 07:38:52;;;;;;;28.30;25.80;;;22.90;70.40;;;;;;6252866;28;83238;-92
2024/01/05 07:45:11;;;;;;;27.77;25.27;;;22.90;70.30;;;;;;6252296;28;85331;-92
2024/01/05 07:54:45;;;;;;;25.65;23.25;;;22.90;70.50;;;;;;6253619;28;85328;-92
2024/01/05 07:57:48;;;;;;;24.85;22.60;;;22.90;70.50;;;;;;6256930;28;83981;-92
2024/01/05 08:04:41;;;;;;;23.45;21.35;;;22.90;70.50;;;;;;6250701;28;85398;-92
2024/01/05 08:07:45;;;;;;;22.50;20.42;;;23.00;70.60;;;;;;6257407;28;82922;-92
2024/01/05 08:10:48;;;;;;;23.00;20.95;;;22.90;70.50;;;;;;6253410;28;82842;-92
2024/01/05 08:13:51;;;;;;;22.77;20.77;;;22.90;70.50;;;;;;6252831;28;83722;-92
2024/01/05 08:20:12;;;;;;;21.80;19.90;;;22.90;70.50;;;;;;6256959;28;84054;-92
2024/01/05 08:23:14;;;;;;;21.35;19.55;;;22.90;70.60;;;;;;6256366;28;84949;-92
2024/01/05 08:26:18;;;;;;;21.33;19.30;;;22.90;70.60;;;;;;6257189;28;82937;-92
2024/01/05 08:29:22;;;;;;;20.83;19.02;;;22.90;70.70;;;;;;6241811;28;82748;-92
2024/01/05 08:32:24;;;;;;;20.15;18.35;;;22.90;70.70;;;;;;6256849;28;82903;-92
2024/01/05 08:35:29;;;;;;;19.83;18.13;;;22.90;70.70;;;;;;6260568;28;83498;-92
2024/01/05 08:38:31;;;;;;;19.35;17.65;;;22.90;70.70;;;;;;6276531;28;83272;-92
2024/01/05 08:41:35;;;;;;;19.23;17.52;;;23.00;70.70;;;;;;6282059;28;82889;-92
2024/01/05 08:44:37;;;;;;;19.70;17.90;;;23.00;70.70;;;;;;6274380;28;82649;-92
2024/01/05 08:50:57;;;;;;;17.98;16.38;;;23.00;70.70;;;;;;6281664;28;84327;-93
2024/01/05 08:54:01;;;;;;;18.42;16.73;;;23.00;70.70;;;;;;6281710;28;84227;-92
2024/01/05 08:57:06;;;;;;;17.92;16.30;;;22.90;70.70;;;;;;6276472;28;84170;-91
2024/01/05 09:00:09;;;;;;;18.15;16.55;;;23.00;70.80;;;;;;6277143;28;82893;-92
2024/01/05 09:03:12;;;;;;;17.65;16.05;;;23.00;70.80;;;;;;6272140;28;83346;-92
2024/01/05 09:06:16;;;;;;;17.80;16.20;;;23.00;70.80;;;;;;6276015;28;83988;-92
2024/01/05 09:09:18;;;;;;;16.85;15.25;;;23.00;70.80;;;;;;6276365;28;82973;-92
2024/01/05 09:12:20;;;;;;;17.05;15.55;;;23.00;70.80;;;;;;6276085;28;84138;-92
2024/01/05 09:15:23;;;;;;;16.45;15.05;;;23.00;70.80;;;;;;6278458;28;82581;-92
2024/01/05 09:18:25;;;;;;;16.45;14.95;;;23.00;70.80;;;;;;6275674;28;84259;-92
2024/01/05 09:21:30;;;;;;;16.58;15.07;;;23.00;71.80;;;;;;6278983;28;84365;-92
2024/01/05 09:24:33;;;;;;;15.95;14.55;;;23.00;70.80;;;;;;6277091;28;83930;-92
2024/01/05 09:27:35;;;;;;;16.33;14.85;;;23.00;70.90;;;;;;6281064;28;84365;-92
2024/01/05 09:30:37;;;;;;;15.90;14.50;;;23.00;70.90;;;;;;6281355;28;82911;-92
2024/01/05 09:33:39;;;;;;;15.02;13.73;;;23.00;70.90;;;;;;6281443;28;82895;-92
2024/01/05 09:36:43;;;;;;;16.42;14.93;;;23.00;70.90;;;;;;6279008;28;84493;-92
2024/01/05 09:39:45;;;;;;;15.73;14.32;;;23.00;70.90;;;;;;6273057;28;82941;-93
2024/01/05 09:42:51;;;;;;;15.88;14.48;;;23.00;70.90;;;;;;6281199;27;83386;-92
2024/01/05 09:45:56;;;;;;;15.20;13.90;;;23.00;70.80;;;;;;6281319;28;83731;-92
2024/01/05 09:49:01;;;;;;;15.30;13.90;;;23.00;70.90;;;;;;6280520;28;84045;-92
2024/01/05 09:52:10;;;;;;;14.75;13.35;;;23.00;70.90;;;;;;6275491;28;82910;-93
2024/01/05 09:55:13;;;;;;;15.20;13.80;;;23.00;70.90;;;;;;6280233;28;84190;-92
2024/01/05 09:58:16;;;;;;;15.10;13.70;;;23.00;70.90;;;;;;6280333;28;83247;-92
2024/01/05 10:01:26;;;;;;;14.95;13.55;;;23.00;71.00;;;;;;6269400;28;84277;-92
2024/01/05 10:04:30;;;;;;;14.57;13.27;;;23.00;71.00;;;;;;6271240;28;84472;-92
2024/01/05 10:07:41;;;;;;;14.18;12.90;;;23.00;71.00;;;;;;6280416;28;83197;-92
2024/01/05 10:14:06;;;;;;;13.38;12.18;;;23.00;71.00;;;;;;6279226;28;84106;-93
2024/01/05 10:17:09;;;;;;;14.68;13.23;;;23.00;71.00;;;;;;6279375;28;82653;-92
2024/01/05 10:20:13;;;;;;;13.50;12.30;;;23.00;71.00;;;;;;6276217;28;82726;-93
2024/01/05 10:23:19;;;;;;;14.05;12.75;;;23.00;71.00;;;;;;6277111;28;82938;-92
2024/01/05 10:26:21;;;;;;;14.07;12.77;;;23.00;71.00;;;;;;6277316;28;84945;-92
2024/01/05 10:39:53;;;;;;;13.48;12.18;;;23.10;71.00;;;;;;6278720;28;83813;-92
2024/01/05 10:49:46;;;;;;;12.77;11.60;;;23.00;70.90;;;;;;6268960;28;83466;-92
2024/01/05 10:52:48;;;;;;;11.98;10.88;;;23.10;71.00;;;;;;6279192;27;83438;-92
2024/01/05 10:55:51;;;;;;;12.30;11.20;;;23.10;71.00;;;;;;6279602;28;82882;-92
2024/01/05 10:58:55;;;;;;;12.57;11.27;;;23.10;70.10;;;;;;6273612;28;84249;-92
2024/01/05 11:01:59;;;;;;;12.63;11.43;;;23.10;71.00;;;;;;6275696;28;82912;-92
2024/01/05 11:05:07;;;;;;;12.55;11.40;;;23.00;70.90;;;;;;6272451;28;83993;-92
2024/01/05 11:08:17;;;;;;;10.70;9.70;;;23.10;71.00;;;;;;6279391;28;82981;-92
2024/01/05 11:11:31;;;;;;;11.90;10.80;;;23.10;71.10;;;;;;6275341;28;82371;-92
2024/01/05 11:14:51;;;;;;;10.80;9.82;;;23.10;71.00;;;;;;6275563;28;82645;-92
2024/01/05 11:18:21;;;;;;;11.57;10.50;;;23.10;71.10;;;;;;6280388;28;84206;-92
2024/01/05 11:21:33;;;;;;;12.02;10.93;;;23.10;71.10;;;;;;6279277;28;82587;-92
2024/01/05 11:24:36;;;;;;;11.10;10.02;;;23.10;71.10;;;;;;6273850;28;83947;-92
2024/01/05 11:27:38;;;;;;;11.55;10.45;;;23.10;71.10;;;;;;6278728;28;84463;-93
2024/01/05 11:30:45;;;;;;;11.27;10.27;;;23.10;71.10;;;;;;6268865;28;83874;-92
2024/01/05 11:33:48;;;;;;;10.63;9.63;;;23.00;71.10;;;;;;6269429;28;83070;-92
2024/01/05 11:36:56;;;;;;;11.45;10.35;;;23.00;71.10;;;;;;6268368;27;83213;-93
2024/01/05 11:43:36;;;;;;;11.30;10.30;;;23.00;71.20;;;;;;6278270;28;84240;-92
2024/01/05 11:47:11;;;;;;;11.30;10.20;;;23.00;71.30;;;;;;6278939;27;84449;-93
2024/01/05 11:50:33;;;;;;;10.57;9.63;;;23.00;71.30;;;;;;6277978;28;84254;-92
2024/01/05 11:53:36;;;;;;;10.48;9.48;;;23.00;71.20;;;;;;6279959;28;82413;-92
2024/01/05 11:56:38;;;;;;;10.50;9.50;;;23.00;71.10;;;;;;6280101;28;82932;-92
2024/01/05 11:59:40;;;;;;;10.40;9.40;;;23.00;71.10;;;;;;6274221;28;82935;-92
2024/01/05 12:02:42;;;;;;;10.57;9.57;;;23.00;71.10;;;;;;6278909;28;83825;-92
2024/01/05 12:05:49;;;;;;;11.00;10.00;;;23.00;71.10;;;;;;6276513;27;82951;-92
2024/01/05 12:08:52;;;;;;;11.38;9.70;;;23.00;71.10;;;;;;6273281;28;82972;-93
2024/01/05 12:11:54;;;;;;;10.20;9.30;;;23.00;71.10;;;;;;6284017;28;83333;-92
2024/01/05 12:15:09;;;;;;;9.75;8.85;;;23.00;71.20;;;;;;6283428;28;83359;-92
2024/01/05 12:18:11;;;;;;;9.98;9.07;;;23.00;71.30;;;;;;6277579;28;82859;-92
2024/01/05 12:21:17;;;;;;;9.75;8.85;;;23.00;72.10;;;;;;6277709;28;82852;-93
2024/01/05 12:24:19;;;;;;;9.88;8.98;;;23.00;71.20;;;;;;6250786;28;83681;-92
2024/01/05 12:27:21;;;;;;;9.70;8.80;;;23.00;71.30;;;;;;6283404;28;83387;-93
2024/01/05 12:30:24;;;;;;;10.30;9.40;;;23.00;71.20;;;;;;6279477;28;81769;-92
2024/01/05 12:33:27;;;;;;;9.25;8.40;;;23.00;71.20;;;;;;6283253;28;84319;-93
2024/01/05 12:36:32;;;;;;;9.80;8.85;;;23.00;71.30;;;;;;6264869;28;82935;-92
2024/01/05 12:39:35;;;;;;;9.48;8.55;;;23.00;71.30;;;;;;6258191;28;82998;-93
2024/01/05 12:42:38;;;;;;;9.55;8.65;;;23.00;71.30;;;;;;6257256;28;82796;-93
2024/01/05 12:45:41;;;;;;;9.40;8.50;;;23.00;71.30;;;;;;6243762;28;81804;-92
2024/01/05 12:48:43;;;;;;;8.93;8.07;;;23.00;71.50;;;;;;6258001;28;83598;-93
2024/01/05 12:51:50;;;;;;;9.55;8.60;;;23.00;71.40;;;;;;6257281;28;83992;-92
2024/01/05 12:54:53;;;;;;;9.27;8.38;;;23.00;71.30;;;;;;6249061;28;83164;-92
2024/01/05 12:58:00;;;;;;;8.98;8.07;;;23.00;71.30;;;;;;6256386;28;82076;-92
2024/01/05 13:01:03;;;;;;;9.15;8.35;;;23.00;71.30;;;;;;6244337;28;83988;-93
2024/01/05 13:07:23;;;;;;;9.65;8.75;;;23.00;71.30;;;;;;6241649;28;81827;-92
2024/01/05 13:10:26;;;;;;;9.35;8.45;;;23.00;71.30;;;;;;6257415;28;84435;-93
2024/01/05 13:13:29;;;;;;;8.80;8.00;;;23.00;71.40;;;;;;6253945;28;81801;-93
2024/01/05 13:16:31;;;;;;;8.93;8.13;;;23.00;71.40;;;;;;6257225;28;82876;-93
2024/01/05 13:22:50;;;;;;;8.93;8.10;;;23.00;71.30;;;;;;6253552;28;85257;-93
2024/01/05 13:25:52;;;;;;;8.88;8.02;;;23.10;71.40;;;;;;6245032;28;83362;-92
2024/01/05 13:28:55;;;;;;;9.25;8.35;;;23.10;71.40;;;;;;6246326;28;83153;-93
2024/01/05 13:32:05;;;;;;;9.07;8.18;;;23.00;71.40;;;;;;6257083;28;82943;-92
2024/01/05 13:35:08;;;;;;;9.40;8.50;;;23.00;71.40;;;;;;6244079;28;84890;-93
2024/01/05 13:38:26;;;;;;;9.63;8.73;;;23.00;71.50;;;;;;6277523;28;84048;-92
2024/01/05 13:51:16;;;;;;;9.13;8.23;;;23.00;71.50;;;;;;6275589;28;84026;-93
2024/01/05 13:54:21;;;;;;;9.18;8.27;;;23.10;71.60;;;;;;6278113;28;84274;-93
2024/01/05 13:57:23;;;;;;;9.00;8.13;;;23.10;71.60;;;;;;6275164;28;83576;-92
2024/01/05 14:00:26;;;;;;;9.25;8.35;;;23.10;71.50;;;;;;6276093;28;84235;-93
2024/01/05 14:03:36;;;;;;;8.88;8.00;;;23.10;71.50;;;;;;6282062;28;83361;-93
2024/01/05 14:09:55;;;;;;;9.25;8.35;;;23.10;71.50;;;;;;6272605;28;84389;-93
2024/01/05 14:16:14;;;;;;;9.80;8.88;;;23.10;71.50;;;;;;6275701;28;84060;-93
2024/01/05 14:22:33;;;;;;;8.93;8.13;;;23.00;71.40;;;;;;6278815;28;82475;-93
2024/01/05 14:25:38;;;;;;;8.88;8.07;;;23.10;71.50;;;;;;6277089;28;84103;-93
2024/01/05 14:28:41;;;;;;;8.80;8.00;;;23.00;71.40;;;;;;6281289;28;81330;-93
2024/01/05 14:31:46;;;;;;;8.75;7.90;;;23.10;71.50;;;;;;6281067;28;84069;-93
2024/01/05 14:34:48;;;;;;;8.80;8.00;;;23.10;71.40;;;;;;6277426;28;83066;-93
2024/01/05 14:37:50;;;;;;;9.45;8.55;;;23.10;71.50;;;;;;6273093;28;84954;-93
2024/01/05 14:40:54;;;;;;;9.45;8.55;;;23.10;71.40;;;;;;6281044;28;82989;-93
2024/01/05 14:43:57;;;;;;;9.68;8.73;;;23.10;71.40;;;;;;6274330;28;82893;-93
2024/01/05 14:47:01;;;;;;;9.48;8.57;;;23.10;71.50;;;;;;6265055;28;82702;-93
2024/01/05 14:53:34;;;;;;;9.45;8.55;;;23.00;71.50;;;;;;6270953;28;84964;-93
2024/01/05 14:56:39;;;;;;;9.27;8.38;;;23.00;71.50;;;;;;6270230;28;83942;-93
2024/01/05 14:59:50;;;;;;;9.80;8.82;;;23.10;71.50;;;;;;6275325;28;84081;-93
2024/01/05 15:02:52;;;;;;;9.10;8.20;;;23.10;71.50;;;;;;6268197;28;84128;-93
2024/01/05 15:05:54;;;;;;;9.48;8.57;;;23.00;71.30;;;;;;6270461;28;83986;-93
2024/01/05 15:08:57;;;;;;;9.48;8.57;;;23.10;71.50;;;;;;6273313;28;83748;-93
2024/01/05 15:12:01;;;;;;;8.98;8.18;;;23.00;71.40;;;;;;6275910;28;84389;-93
2024/01/05 15:15:04;;;;;;;9.93;8.95;;;23.10;71.50;;;;;;6280824;28;84135;-93
2024/01/05 15:18:06;;;;;;;9.23;8.35;;;23.10;71.60;;;;;;6277268;28;84019;-93
2024/01/05 15:21:08;;;;;;;9.05;8.25;;;23.10;71.60;;;;;;6269900;28;83959;-93
2024/01/05 15:24:12;;;;;;;9.48;8.50;;;23.10;71.60;;;;;;6278797;28;83964;-93
2024/01/05 15:30:31;;;;;;;8.90;8.00;;;23.10;71.60;;;;;;6279018;28;81720;-93
2024/01/05 15:40:07;;;;;;;8.95;8.15;;;23.10;71.50;;;;;;6275824;27;86062;-93
2024/01/05 15:43:11;;;;;;;9.27;8.40;;;23.10;71.50;;;;;;6278767;28;84278;-93
2024/01/05 15:52:45;;;;;;;8.95;8.13;;;23.10;71.70;;;;;;6280003;28;84322;-93
2024/01/05 15:55:47;;;;;;;9.55;8.57;;;23.10;71.80;;;;;;6283068;28;83986;-93
2024/01/05 15:58:51;;;;;;;9.55;8.55;;;23.10;72.00;;;;;;6278770;28;82897;-93
2024/01/05 16:01:53;;;;;;;10.15;8.50;;;23.20;72.20;;;;;;6284549;28;83680;-93
2024/01/05 16:04:56;;;;;;;10.05;8.27;;;23.20;72.40;;;;;;6283872;28;83284;-93
2024/01/05 16:07:58;;;;;;;10.18;8.38;;;23.20;72.50;;;;;;6271031;28;82975;-93
2024/01/05 16:11:00;;;;;;;12.18;8.43;;;23.20;72.70;;;;;;6283565;28;86481;-93
2024/01/05 16:14:04;;;;;;;9.43;8.07;;;23.20;72.70;;;;;;6281502;28;83974;-93
2024/01/05 16:17:06;;;;;;;9.25;8.18;;;23.20;72.80;;;;;;6281147;28;84383;-93
2024/01/05 16:20:09;;;;;;;11.38;8.48;;;23.10;72.70;;;;;;6278032;28;82911;-93
2024/01/05 16:26:28;;;;;;;9.20;8.20;;;23.20;72.80;;;;;;6282964;28;85268;-93
2024/01/05 16:29:31;;;;;;;8.77;7.82;;;23.10;72.80;;;;;;6272616;28;84560;-92
2024/01/05 16:32:33;;;;;;;9.15;8.25;;;23.10;72.80;;;;;;6278771;28;83234;-93
2024/01/05 16:38:52;;;;;;;9.43;8.35;;;23.10;72.80;;;;;;6273945;28;82253;-93
2024/01/05 16:45:12;;;;;;;9.15;8.18;;;23.10;72.80;;;;;;6282930;28;84805;-93
2024/01/05 16:48:18;;;;;;;9.48;8.32;;;23.10;72.70;;;;;;6253000;28;83629;-93
2024/01/05 16:51:22;;;;;;;9.82;8.15;;;23.10;72.70;;;;;;6282192;28;82928;-92
2024/01/05 16:54:24;;;;;;;8.45;7.65;;;23.10;72.70;;;;;;6277759;28;83490;-93
2024/01/05 16:57:27;;;;;;;9.60;8.25;;;23.10;72.70;;;;;;6277737;28;82245;-93
2024/01/05 17:00:31;;;;;;;9.35;7.95;;;23.20;72.80;;;;;;6282614;27;84746;-93
2024/01/05 17:03:33;;;;;;;10.00;8.10;;;23.10;72.70;;;;;;6274940;28;82127;-92
2024/01/05 17:06:37;;;;;;;9.20;8.30;;;23.10;72.70;;;;;;6275646;28;83951;-93
2024/01/05 17:09:40;;;;;;;9.32;8.20;;;23.10;72.70;;;;;;6282218;28;83341;-93
2024/01/05 17:12:43;;;;;;;8.48;7.57;;;23.20;73.60;;;;;;6276494;28;85026;-93
2024/01/05 17:15:47;;;;;;;8.35;7.55;;;23.20;72.70;;;;;;6282117;28;84020;-93
2024/01/05 17:19:00;;;;;;;8.95;7.55;;;23.10;72.60;;;;;;6272371;28;83502;-92
2024/01/05 17:22:02;;;;;;;9.50;8.07;;;23.20;72.60;;;;;;6276711;28;82977;-93
2024/01/05 17:25:05;;;;;;;8.70;7.80;;;23.20;72.60;;;;;;6282322;28;82883;-93
2024/01/05 17:31:25;;;;;;;8.57;7.68;;;23.10;72.60;;;;;;6281804;28;85023;-93
2024/01/05 17:34:28;;;;;;;8.15;7.35;;;23.10;72.50;;;;;;6277373;28;83178;-93
2024/01/05 17:37:30;;;;;;;7.65;6.95;;;23.10;72.50;;;;;;6276342;28;82873;-92
2024/01/05 17:40:32;;;;;;;8.10;7.30;;;23.10;72.50;;;;;;6282614;28;82947;-92
2024/01/05 17:43:35;;;;;;;9.35;7.13;;;23.10;72.50;;;;;;6275946;27;85831;-93
2024/01/05 17:50:25;;;;;;;7.75;6.95;;;23.10;72.40;;;;;;6276085;28;85252;-93
2024/01/05 17:56:44;;;;;;;7.90;7.10;;;23.10;72.30;;;;;;6272832;28;83677;-92
2024/01/05 17:59:46;;;;;;;8.00;7.20;;;23.20;72.40;;;;;;6274371;28;84064;-93
2024/01/05 18:06:10;;;;;;;8.13;7.32;;;23.20;72.50;;;;;;6281768;28;83540;-93
2024/01/05 18:09:13;;;;;;;7.45;6.75;;;23.20;72.40;;;;;;6276626;28;84507;-93
2024/01/05 18:12:15;;;;;;;7.57;6.78;;;23.20;72.40;;;;;;6279351;27;82220;-93
2024/01/05 18:15:17;;;;;;;7.38;6.68;;;23.10;72.30;;;;;;6276433;28;83860;-93
2024/01/05 18:18:19;;;;;;;7.75;6.95;;;23.20;72.30;;;;;;6279171;28;84416;-92
2024/01/05 18:21:24;;;;;;;7.80;7.00;;;23.20;72.20;;;;;;6275274;28;84561;-92
2024/01/05 18:24:26;;;;;;;7.10;6.40;;;23.20;72.20;;;;;;6275458;28;84193;-92
2024/01/05 18:27:28;;;;;;;7.47;6.78;;;23.20;72.20;;;;;;6273864;28;84355;-93
2024/01/05 18:33:47;;;;;;;7.03;6.32;;;23.20;72.20;;;;;;6277142;28;87212;-92